createdAt,value
2022-10-08T00:00:54.259Z,11.15
2022-10-08T00:03:23.000Z,9.43
2022-10-08T00:06:07.374Z,10.40
2022-10-08T00:08:38.127Z,7.83
2022-10-08T00:11:10.866Z,8.32
2022-10-08T00:13:39.851Z,7.88
2022-10-08T00:16:07.959Z,8.85
2022-10-08T00:18:34.997Z,8.25
2022-10-08T00:21:10.359Z,7.47
2022-10-08T00:23:37.532Z,6.85
2022-10-08T00:26:04.893Z,8.07
2022-10-08T00:28:31.722Z,7.80
2022-10-08T00:30:58.531Z,6.85
2022-10-08T00:33:25.289Z,7.53
2022-10-08T00:35:52.187Z,7.93
2022-10-08T00:38:18.897Z,6.78
2022-10-08T00:40:46.105Z,8.00
2022-10-08T00:43:16.251Z,7.35
2022-10-08T00:45:45.858Z,7.30
2022-10-08T00:48:19.209Z,7.18
2022-10-08T00:50:46.000Z,8.98
2022-10-08T00:53:12.980Z,8.30
2022-10-08T00:55:43.560Z,7.97
2022-10-08T00:58:22.315Z,9.13
2022-10-08T01:00:50.414Z,8.48
2022-10-08T01:03:17.232Z,10.00
2022-10-08T01:05:59.075Z,7.50
2022-10-08T01:08:25.784Z,8.10
2022-10-08T01:11:04.281Z,9.23
2022-10-08T01:13:46.939Z,9.85
2022-10-08T01:16:39.667Z,9.25
2022-10-08T01:19:21.331Z,9.13
2022-10-08T01:22:05.341Z,9.95
2022-10-08T01:24:47.349Z,12.13
2022-10-08T01:27:38.471Z,11.32
2022-10-08T01:30:10.217Z,13.15
2022-10-08T01:32:43.574Z,11.45
2022-10-08T01:35:16.619Z,12.00
2022-10-08T01:37:45.165Z,13.07
2022-10-08T01:40:27.060Z,10.90
2022-10-08T01:42:56.393Z,10.90
2022-10-08T01:45:28.696Z,10.77
2022-10-08T01:47:59.887Z,11.57
2022-10-08T01:50:34.926Z,10.87
2022-10-08T01:53:07.183Z,11.73
2022-10-08T01:55:39.300Z,10.40
2022-10-08T01:58:17.279Z,10.05
2022-10-08T02:00:47.532Z,11.95
2022-10-08T02:03:14.368Z,10.63
2022-10-08T02:05:47.353Z,13.93
2022-10-08T02:08:14.193Z,11.50
2022-10-08T02:10:41.104Z,11.10
2022-10-08T02:13:08.159Z,11.35
2022-10-08T02:15:43.840Z,11.77
2022-10-08T02:18:10.557Z,11.52
2022-10-08T02:20:56.047Z,11.77
2022-10-08T02:23:29.311Z,11.57
2022-10-08T02:26:08.589Z,12.45
2022-10-08T02:28:41.483Z,12.17
2022-10-08T02:31:19.689Z,10.65
2022-10-08T02:33:54.072Z,11.88
2022-10-08T02:36:28.517Z,11.63
2022-10-08T02:39:02.192Z,12.57
2022-10-08T02:41:32.964Z,11.87
2022-10-08T02:44:03.190Z,11.93
2022-10-08T02:46:34.744Z,11.88
2022-10-08T02:49:12.433Z,12.05
2022-10-08T02:51:42.753Z,11.20
2022-10-08T02:54:10.490Z,10.63
2022-10-08T02:56:47.501Z,11.38
2022-10-08T02:59:19.675Z,11.63
2022-10-08T03:01:57.360Z,12.82
2022-10-08T03:04:48.900Z,16.20
2022-10-08T03:07:15.775Z,12.50
2022-10-08T03:09:49.665Z,10.98
2022-10-08T03:12:17.089Z,17.13
2022-10-08T03:14:47.835Z,13.63
2022-10-08T03:17:19.705Z,14.40
2022-10-08T03:19:46.541Z,16.50
2022-10-08T03:22:13.321Z,14.45
2022-10-08T03:24:40.667Z,13.75
2022-10-08T03:27:07.642Z,14.10
2022-10-08T03:29:34.429Z,11.80
2022-10-08T03:32:01.257Z,9.83
2022-10-08T03:34:28.112Z,11.35
2022-10-08T03:37:09.332Z,12.27
2022-10-08T03:39:36.178Z,12.48
2022-10-08T03:42:04.211Z,11.18
2022-10-08T03:44:30.940Z,12.87
2022-10-08T03:46:57.809Z,14.13
2022-10-08T03:49:24.659Z,12.52
2022-10-08T03:51:51.487Z,10.48
2022-10-08T03:54:18.552Z,12.10
2022-10-08T03:56:45.498Z,13.17
2022-10-08T03:59:12.459Z,12.52
2022-10-08T04:01:39.408Z,12.05
2022-10-08T04:04:06.323Z,10.70
2022-10-08T04:06:33.170Z,10.43
2022-10-08T04:09:00.339Z,12.70
2022-10-08T04:11:29.314Z,14.77
2022-10-08T04:13:56.071Z,14.35
2022-10-08T04:16:22.857Z,12.43
2022-10-08T04:18:50.319Z,15.23
2022-10-08T04:21:18.920Z,18.60
2022-10-08T04:23:48.870Z,16.35
2022-10-08T04:26:16.623Z,18.08
2022-10-08T04:28:44.888Z,19.13
2022-10-08T04:31:14.187Z,13.55
2022-10-08T04:33:41.143Z,16.27
2022-10-08T04:36:13.296Z,17.88
2022-10-08T04:38:41.774Z,18.35
2022-10-08T04:41:12.887Z,21.95
2022-10-08T04:43:41.599Z,23.20
2022-10-08T04:46:11.191Z,23.80
2022-10-08T04:48:38.746Z,22.20
2022-10-08T04:51:10.508Z,16.75
2022-10-08T04:53:38.804Z,15.65
2022-10-08T04:56:17.630Z,16.75
2022-10-08T04:58:45.220Z,18.10
2022-10-08T05:01:14.718Z,17.55
2022-10-08T05:03:43.833Z,18.23
2022-10-08T05:06:11.809Z,18.83
2022-10-08T05:08:38.941Z,21.52
2022-10-08T05:11:06.445Z,26.13
2022-10-08T05:13:33.746Z,30.23
2022-10-08T05:16:08.977Z,32.03
2022-10-08T05:18:36.451Z,34.35
2022-10-08T05:21:05.474Z,29.80
2022-10-08T05:23:33.392Z,33.50
2022-10-08T05:26:00.283Z,28.05
2022-10-08T05:28:27.030Z,29.85
2022-10-08T05:30:58.975Z,33.00
2022-10-08T05:33:25.974Z,31.48
2022-10-08T05:35:52.743Z,31.73
2022-10-08T05:38:19.477Z,30.40
2022-10-08T05:40:46.218Z,26.85
2022-10-08T05:43:12.984Z,20.95
2022-10-08T05:45:39.678Z,18.13
2022-10-08T05:48:06.462Z,14.87
2022-10-08T05:50:36.648Z,16.55
2022-10-08T05:53:07.353Z,13.95
2022-10-08T05:55:35.952Z,24.90
2022-10-08T05:58:02.687Z,29.92
2022-10-08T06:00:29.369Z,35.40
2022-10-08T06:02:56.298Z,34.42
2022-10-08T06:05:23.063Z,33.50
2022-10-08T06:07:49.785Z,36.80
2022-10-08T06:10:16.564Z,37.30
2022-10-08T06:12:43.287Z,36.17
2022-10-08T06:15:10.145Z,30.98
2022-10-08T06:17:36.958Z,34.60
2022-10-08T06:20:03.908Z,28.27
2022-10-08T06:22:31.370Z,28.10
2022-10-08T06:24:58.129Z,25.23
2022-10-08T06:27:24.871Z,22.27
2022-10-08T06:29:51.608Z,19.60
2022-10-08T06:32:18.391Z,16.95
2022-10-08T06:34:45.054Z,18.67
2022-10-08T06:37:11.877Z,14.80
2022-10-08T06:39:38.682Z,16.25
2022-10-08T06:42:05.453Z,17.63
2022-10-08T06:44:32.212Z,15.38
2022-10-08T06:46:58.976Z,16.63
2022-10-08T06:49:25.859Z,16.30
2022-10-08T06:51:52.695Z,17.35
2022-10-08T06:54:19.563Z,15.10
2022-10-08T06:56:46.784Z,16.98
2022-10-08T06:59:13.513Z,15.82
2022-10-08T07:01:40.433Z,15.50
2022-10-08T07:04:07.465Z,15.02
2022-10-08T07:06:37.282Z,14.57
2022-10-08T07:09:05.215Z,18.67
2022-10-08T07:11:34.114Z,17.35
2022-10-08T07:14:04.387Z,16.30
2022-10-08T07:16:31.286Z,15.73
2022-10-08T07:18:58.887Z,15.80
2022-10-08T07:21:26.426Z,16.10
2022-10-08T07:23:53.244Z,17.20
2022-10-08T07:26:22.390Z,21.00
2022-10-08T07:28:59.286Z,21.48
2022-10-08T07:31:28.478Z,23.70
2022-10-08T07:33:59.860Z,23.35
2022-10-08T07:36:28.077Z,21.98
2022-10-08T07:39:00.630Z,23.27
2022-10-08T07:41:28.434Z,21.45
2022-10-08T07:43:57.735Z,21.48
2022-10-08T07:46:35.439Z,21.95
2022-10-08T07:49:04.107Z,21.55
2022-10-08T07:51:33.147Z,26.47
2022-10-08T07:54:02.809Z,23.98
2022-10-08T07:56:30.835Z,21.23
2022-10-08T07:59:00.038Z,21.25
2022-10-08T08:01:27.511Z,19.98
2022-10-08T08:03:58.955Z,21.83
2022-10-08T08:06:25.920Z,18.60
2022-10-08T08:08:53.061Z,16.77
2022-10-08T08:11:22.156Z,16.02
2022-10-08T08:13:49.946Z,20.02
2022-10-08T08:16:19.459Z,22.60
2022-10-08T08:18:48.723Z,20.83
2022-10-08T08:21:29.667Z,16.38
2022-10-08T08:23:58.689Z,13.32
2022-10-08T08:26:26.924Z,12.10
2022-10-08T08:28:55.936Z,13.30
2022-10-08T08:31:44.281Z,11.60
2022-10-08T08:34:13.928Z,12.65
2022-10-08T08:36:46.450Z,12.88
2022-10-08T08:39:18.920Z,13.80
2022-10-08T08:42:03.723Z,10.73
2022-10-08T08:44:35.012Z,13.25
2022-10-08T08:47:36.540Z,12.70
2022-10-08T08:50:32.662Z,14.27
2022-10-08T08:53:00.299Z,13.32
2022-10-08T08:55:35.678Z,13.40
2022-10-08T08:58:11.113Z,13.35
2022-10-08T09:00:42.726Z,14.07
2022-10-08T09:03:43.623Z,14.05
2022-10-08T09:06:14.843Z,15.65
2022-10-08T09:08:47.765Z,14.00
2022-10-08T09:11:17.634Z,15.63
2022-10-08T09:14:00.486Z,13.27
2022-10-08T09:16:28.218Z,14.45
2022-10-08T09:18:55.461Z,13.35
2022-10-08T09:21:25.232Z,12.20
2022-10-08T09:23:52.021Z,12.30
2022-10-08T09:26:24.516Z,12.65
2022-10-08T09:28:56.830Z,12.52
2022-10-08T09:31:39.703Z,11.57
2022-10-08T09:34:18.613Z,12.37
2022-10-08T09:37:01.526Z,10.07
2022-10-08T09:39:31.451Z,10.73
2022-10-08T09:42:07.326Z,10.18
2022-10-08T09:44:51.642Z,10.40
2022-10-08T09:47:20.740Z,9.70
2022-10-08T09:50:06.445Z,8.32
2022-10-08T09:52:36.443Z,8.35
2022-10-08T09:55:18.799Z,8.25
2022-10-08T09:57:51.147Z,7.90
2022-10-08T10:00:30.158Z,7.77
2022-10-08T10:03:00.901Z,7.15
2022-10-08T10:05:33.528Z,6.93
2022-10-08T10:08:00.787Z,7.10
2022-10-08T10:10:44.353Z,6.93
2022-10-08T10:13:19.615Z,7.07
2022-10-08T10:15:51.212Z,7.05
2022-10-08T10:18:23.218Z,8.15
2022-10-08T10:20:55.492Z,6.47
2022-10-08T10:23:35.081Z,10.00
2022-10-08T10:26:19.953Z,10.83
2022-10-08T10:28:50.953Z,10.45
2022-10-08T10:31:32.149Z,10.32
2022-10-08T10:34:02.997Z,9.70
2022-10-08T10:36:35.551Z,9.57
2022-10-08T10:39:17.940Z,10.27
2022-10-08T10:42:13.598Z,11.30
2022-10-08T10:45:15.464Z,12.93
2022-10-08T10:47:42.400Z,12.50
2022-10-08T10:50:16.837Z,13.65
2022-10-08T10:52:50.331Z,13.67
2022-10-08T10:55:26.721Z,12.20
2022-10-08T10:57:59.734Z,13.68
2022-10-08T11:00:48.261Z,15.75
2022-10-08T11:03:28.393Z,14.55
2022-10-08T11:06:16.191Z,15.67
2022-10-08T11:09:01.207Z,15.55
2022-10-08T11:11:42.023Z,15.70
2022-10-08T11:14:33.813Z,14.43
2022-10-08T11:17:28.221Z,12.68
2022-10-08T11:20:10.380Z,10.53
2022-10-08T11:22:56.388Z,12.32
2022-10-08T11:25:26.062Z,9.38
2022-10-08T11:27:58.750Z,11.00
2022-10-08T11:30:42.334Z,10.90
2022-10-08T11:33:14.540Z,10.87
2022-10-08T11:35:47.026Z,17.00
2022-10-08T11:38:26.557Z,18.13
2022-10-08T11:40:59.642Z,21.48
2022-10-08T11:43:29.083Z,25.65
2022-10-08T11:46:33.722Z,26.37
2022-10-08T11:49:23.605Z,26.00
2022-10-08T11:51:53.987Z,27.98
2022-10-08T11:54:27.324Z,28.20
2022-10-08T11:57:17.894Z,27.40
2022-10-08T12:00:08.503Z,30.73
2022-10-08T12:02:42.562Z,31.80
2022-10-08T12:05:23.265Z,32.95
2022-10-08T12:07:58.621Z,34.85
2022-10-08T12:10:27.951Z,29.05
2022-10-08T12:12:54.759Z,30.83
2022-10-08T12:15:24.616Z,29.55
2022-10-08T12:18:25.832Z,31.30
2022-10-08T12:21:18.037Z,34.13
2022-10-08T12:23:45.178Z,34.95
2022-10-08T12:26:14.614Z,34.03
2022-10-08T12:28:49.577Z,35.22
2022-10-08T12:31:23.948Z,34.67
2022-10-08T12:34:01.566Z,34.58
2022-10-08T12:36:37.700Z,34.25
2022-10-08T12:39:10.324Z,27.67
2022-10-08T12:41:58.038Z,26.77
2022-10-08T12:44:41.749Z,24.42
2022-10-08T12:47:27.857Z,25.55
2022-10-08T12:50:06.018Z,17.63
2022-10-08T12:52:35.997Z,12.30
2022-10-08T12:55:05.351Z,9.50
2022-10-08T12:57:40.808Z,12.93
2022-10-08T13:00:10.998Z,11.32
2022-10-08T13:02:42.332Z,13.48
2022-10-08T13:05:33.756Z,17.10
2022-10-08T13:08:37.460Z,15.75
2022-10-08T13:11:13.747Z,15.18
2022-10-08T13:13:40.457Z,17.70
2022-10-08T13:16:10.739Z,23.58
2022-10-08T13:18:39.878Z,17.83
2022-10-08T13:21:23.347Z,18.10
2022-10-08T13:23:50.265Z,19.98
2022-10-08T13:26:45.456Z,20.45
2022-10-08T13:29:21.425Z,18.73
2022-10-08T13:32:25.035Z,14.70
2022-10-08T13:35:00.602Z,12.68
2022-10-08T13:37:35.024Z,12.52
2022-10-08T13:40:13.689Z,9.65
2022-10-08T13:42:43.566Z,11.57
2022-10-08T13:45:17.134Z,9.70
2022-10-08T13:47:44.113Z,9.93
2022-10-08T13:50:11.732Z,11.27
2022-10-08T13:52:43.326Z,10.57
2022-10-08T13:55:23.639Z,10.27
2022-10-08T13:57:50.625Z,13.67
2022-10-08T14:00:18.359Z,17.25
2022-10-08T14:02:45.189Z,18.40
2022-10-08T14:05:12.065Z,16.00
2022-10-08T14:07:39.237Z,33.22
2022-10-08T14:10:07.002Z,22.77
2022-10-08T14:12:35.089Z,19.92
2022-10-08T14:15:01.939Z,16.13
2022-10-08T14:17:28.742Z,17.10
2022-10-08T14:19:55.638Z,16.08
2022-10-08T14:22:22.818Z,17.93
2022-10-08T14:24:49.571Z,18.88
2022-10-08T14:27:16.516Z,19.00
2022-10-08T14:29:43.340Z,20.65
2022-10-08T14:32:10.855Z,22.42
2022-10-08T14:34:37.746Z,24.43
2022-10-08T14:37:04.933Z,22.10
2022-10-08T14:39:31.768Z,19.50
2022-10-08T14:41:59.404Z,24.77
2022-10-08T14:44:26.684Z,25.23
2022-10-08T14:46:53.481Z,25.70
2022-10-08T14:49:21.367Z,27.27
2022-10-08T14:51:49.521Z,25.10
2022-10-08T14:54:19.473Z,27.20
2022-10-08T14:56:46.785Z,22.38
2022-10-08T14:59:13.831Z,24.50
2022-10-08T15:01:40.678Z,23.10
2022-10-08T15:04:08.109Z,24.15
2022-10-08T15:06:35.040Z,20.88
2022-10-08T15:09:01.931Z,21.48
2022-10-08T15:11:28.767Z,22.93
2022-10-08T15:13:55.658Z,22.10
2022-10-08T15:16:22.922Z,22.88
2022-10-08T15:18:50.042Z,25.27
2022-10-08T15:21:17.376Z,25.05
2022-10-08T15:23:44.209Z,26.60
2022-10-08T15:26:14.406Z,23.85
2022-10-08T15:28:42.499Z,26.83
2022-10-08T15:31:18.245Z,35.90
2022-10-08T15:33:47.718Z,36.03
2022-10-08T15:36:28.332Z,45.53
2022-10-08T15:39:00.188Z,37.03
2022-10-08T15:41:31.980Z,43.20
2022-10-08T15:44:20.457Z,38.33
2022-10-08T15:46:49.393Z,26.13
2022-10-08T15:49:16.640Z,28.27
2022-10-08T15:51:43.401Z,19.55
2022-10-08T15:54:10.286Z,21.40
2022-10-08T15:56:37.091Z,20.83
2022-10-08T15:59:04.794Z,19.83
2022-10-08T16:01:32.060Z,21.27
2022-10-08T16:03:59.214Z,17.73
2022-10-08T16:06:33.553Z,15.82
2022-10-08T16:09:00.954Z,18.20
2022-10-08T16:11:30.742Z,18.70
2022-10-08T16:14:03.156Z,21.63
2022-10-08T16:16:30.529Z,20.48
2022-10-08T16:19:00.116Z,20.20
2022-10-08T16:21:28.867Z,22.25
2022-10-08T16:23:57.162Z,20.48
2022-10-08T16:26:25.809Z,20.93
2022-10-08T16:28:59.002Z,22.90
2022-10-08T16:31:28.456Z,21.83
2022-10-08T16:34:00.241Z,22.77
2022-10-08T16:36:29.424Z,24.35
2022-10-08T16:38:56.646Z,23.53
2022-10-08T16:41:29.307Z,22.98
2022-10-08T16:43:59.361Z,25.25
2022-10-08T16:46:29.733Z,22.35
2022-10-08T16:48:58.742Z,21.88
2022-10-08T16:51:27.999Z,21.53
2022-10-08T16:53:57.340Z,18.45
2022-10-08T16:56:27.988Z,17.65
2022-10-08T16:58:56.593Z,16.50
2022-10-08T17:01:24.210Z,17.17
2022-10-08T17:03:51.778Z,15.73
2022-10-08T17:06:20.710Z,14.82
2022-10-08T17:08:48.152Z,19.15
2022-10-08T17:11:15.608Z,16.25
2022-10-08T17:13:48.342Z,16.92
2022-10-08T17:16:16.390Z,15.07
2022-10-08T17:18:43.351Z,13.82
2022-10-08T17:21:11.071Z,14.88
2022-10-08T17:23:38.075Z,16.40
2022-10-08T17:26:08.335Z,15.95
2022-10-08T17:28:38.093Z,16.03
2022-10-08T17:31:06.267Z,18.02
2022-10-08T17:33:35.757Z,19.52
2022-10-08T17:36:05.351Z,22.00
2022-10-08T17:38:33.163Z,22.92
2022-10-08T17:40:59.990Z,21.50
2022-10-08T17:43:26.989Z,21.50
2022-10-08T17:45:53.877Z,21.25
2022-10-08T17:48:20.785Z,23.25
2022-10-08T17:50:47.629Z,19.70
2022-10-08T17:53:14.782Z,19.67
2022-10-08T17:55:41.734Z,20.40
2022-10-08T17:58:08.521Z,20.35
2022-10-08T18:00:35.517Z,22.17
2022-10-08T18:03:02.392Z,23.15
2022-10-08T18:05:29.105Z,22.53
2022-10-08T18:07:56.041Z,18.17
2022-10-08T18:10:22.849Z,20.25
2022-10-08T18:12:50.205Z,18.90
2022-10-08T18:15:18.393Z,23.65
2022-10-08T18:17:57.170Z,19.20
2022-10-08T18:20:23.929Z,21.65
2022-10-08T18:22:50.854Z,23.27
2022-10-08T18:25:17.944Z,21.02
2022-10-08T18:27:44.696Z,23.23
2022-10-08T18:30:11.849Z,23.77
2022-10-08T18:32:38.609Z,32.22
2022-10-08T18:35:05.660Z,42.40
2022-10-08T18:37:32.483Z,42.20
2022-10-08T18:39:59.254Z,38.65
2022-10-08T18:42:26.311Z,35.70
2022-10-08T18:44:53.116Z,31.65
2022-10-08T18:47:22.705Z,30.83
2022-10-08T18:49:49.735Z,26.95
2022-10-08T18:52:21.230Z,23.88
2022-10-08T18:54:48.373Z,22.40
2022-10-08T18:57:15.328Z,23.13
2022-10-08T18:59:42.123Z,24.13
2022-10-08T19:02:10.536Z,19.90
2022-10-08T19:04:38.028Z,21.35
2022-10-08T19:07:04.866Z,20.23
2022-10-08T19:09:31.776Z,24.00
2022-10-08T19:11:58.642Z,27.88
2022-10-08T19:14:25.403Z,23.42
2022-10-08T19:16:52.514Z,19.02
2022-10-08T19:19:24.995Z,20.47
2022-10-08T19:21:55.478Z,19.73
2022-10-08T19:24:24.645Z,18.20
2022-10-08T19:26:52.690Z,24.67
2022-10-08T19:29:27.506Z,23.38
2022-10-08T19:31:54.363Z,19.23
2022-10-08T19:34:26.050Z,22.08
2022-10-08T19:36:53.430Z,16.92
2022-10-08T19:39:23.268Z,21.25
2022-10-08T19:41:50.697Z,18.25
2022-10-08T19:44:18.236Z,17.33
2022-10-08T19:46:46.015Z,18.52
2022-10-08T19:49:12.912Z,17.67
2022-10-08T19:51:40.262Z,16.02
2022-10-08T19:54:07.327Z,13.60
2022-10-08T19:56:34.381Z,15.47
2022-10-08T19:59:01.241Z,14.38
2022-10-08T20:01:33.887Z,15.77
2022-10-08T20:04:02.471Z,14.98
2022-10-08T20:06:31.845Z,15.95
2022-10-08T20:09:01.069Z,16.77
2022-10-08T20:11:29.955Z,14.38
2022-10-08T20:13:57.693Z,17.20
2022-10-08T20:16:31.062Z,13.65
2022-10-08T20:19:09.454Z,13.60
2022-10-08T20:21:37.640Z,14.00
2022-10-08T20:24:05.125Z,14.52
2022-10-08T20:26:36.382Z,15.90
2022-10-08T20:29:09.526Z,14.60
2022-10-08T20:31:39.238Z,17.05
2022-10-08T20:34:11.441Z,17.00
2022-10-08T20:36:41.579Z,16.63
2022-10-08T20:39:11.549Z,16.38
2022-10-08T20:41:38.318Z,13.77
2022-10-08T20:44:05.630Z,15.35
2022-10-08T20:46:34.090Z,15.90
2022-10-08T20:49:01.636Z,16.52
2022-10-08T20:51:29.810Z,16.63
2022-10-08T20:54:06.366Z,13.98
2022-10-08T20:56:39.565Z,15.45
2022-10-08T20:59:08.870Z,13.80
2022-10-08T21:01:38.221Z,14.70
2022-10-08T21:04:06.850Z,15.40
2022-10-08T21:06:39.884Z,15.77
2022-10-08T21:09:07.550Z,14.55
2022-10-08T21:11:34.594Z,13.93
2022-10-08T21:14:01.853Z,15.55
2022-10-08T21:16:31.921Z,14.32
2022-10-08T21:19:01.711Z,14.85
2022-10-08T21:21:30.259Z,14.95
2022-10-08T21:23:58.772Z,13.30
2022-10-08T21:26:27.071Z,14.20
2022-10-08T21:28:57.124Z,13.60
2022-10-08T21:31:26.268Z,14.18
2022-10-08T21:33:54.356Z,13.55
2022-10-08T21:36:24.265Z,11.87
2022-10-08T21:38:51.581Z,14.38
2022-10-08T21:41:20.099Z,16.17
2022-10-08T21:43:52.422Z,21.95
2022-10-08T21:46:24.592Z,22.05
2022-10-08T21:48:56.002Z,24.70
2022-10-08T21:51:23.685Z,27.50
2022-10-08T21:53:53.553Z,31.48
2022-10-08T21:56:23.154Z,25.00
2022-10-08T21:58:52.549Z,28.15
2022-10-08T22:01:49.135Z,29.37
2022-10-08T22:04:22.343Z,26.73
2022-10-08T22:06:54.397Z,23.55
2022-10-08T22:09:26.917Z,25.52
2022-10-08T22:11:55.047Z,29.13
2022-10-08T22:14:22.449Z,25.20
2022-10-08T22:16:52.010Z,20.27
2022-10-08T22:19:19.627Z,18.60
2022-10-08T22:21:46.898Z,22.83
2022-10-08T22:24:14.130Z,22.35
2022-10-08T22:26:43.890Z,23.57
2022-10-08T22:29:10.807Z,23.98
2022-10-08T22:31:38.102Z,24.10
2022-10-08T22:34:05.617Z,24.75
2022-10-08T22:36:33.904Z,25.80
2022-10-08T22:39:00.724Z,26.63
2022-10-08T22:41:32.178Z,27.35
2022-10-08T22:44:01.981Z,29.15
2022-10-08T22:46:31.636Z,28.48
2022-10-08T22:49:08.675Z,23.27
2022-10-08T22:51:35.772Z,18.00
2022-10-08T22:54:02.522Z,17.05
2022-10-08T22:56:30.975Z,15.77
2022-10-08T22:58:59.791Z,15.55
2022-10-08T23:01:28.353Z,14.07
2022-10-08T23:03:55.323Z,15.13
2022-10-08T23:06:23.855Z,15.68
2022-10-08T23:09:00.551Z,18.63
2022-10-08T23:11:28.023Z,17.40
2022-10-08T23:13:56.899Z,16.23
2022-10-08T23:16:26.807Z,18.20
2022-10-08T23:18:59.658Z,16.30
2022-10-08T23:21:27.559Z,17.45
2022-10-08T23:23:55.111Z,16.67
2022-10-08T23:26:23.302Z,13.93
2022-10-08T23:28:51.868Z,17.90
2022-10-08T23:31:25.976Z,17.00
2022-10-08T23:33:54.880Z,17.77
2022-10-08T23:36:24.081Z,18.77
2022-10-08T23:38:51.397Z,17.63
2022-10-08T23:41:18.632Z,17.40
2022-10-08T23:43:47.331Z,17.83
2022-10-08T23:46:16.787Z,16.33
2022-10-08T23:48:43.974Z,18.02
2022-10-08T23:51:12.203Z,16.23
2022-10-08T23:53:39.339Z,16.50
2022-10-08T23:56:06.856Z,17.02
2022-10-08T23:58:33.630Z,17.77
